Time;durP1;ratioP1;P1;durP2;ratioP2;P2;SDS_P1;SDS_P2;PMS_P1;PMS_P2;Temp;Humidity;BMP_temperature;BMP_pressure;BME280_temperature;BME280_humidity;BME280_pressure;Samples;Min_cycle;Max_cycle;Signal;HPM_P1;HPM_P2
2022/04/17 09:30:43;;;;;;;6.10;2.40;;;;;;;6.09;75.41;143758.16;1847304;77;23441;-55
2022/04/17 09:33:10;;;;;;;6.80;2.85;;;;;;;6.01;75.75;143738.17;1802116;78;21516;-58
2022/04/17 09:35:37;;;;;;;6.30;2.90;;;;;;;6.03;76.26;143743.13;1802797;80;20990;-55
2022/04/17 09:38:08;;;;;;;11.60;4.22;;;;;;;6.13;76.53;143766.87;1767169;80;21014;-55
2022/04/17 09:40:37;;;;;;;8.35;2.85;;;;;;;6.11;74.23;143763.16;1767427;81;21018;-56
2022/04/17 09:43:18;;;;;;;4.10;2.30;;;;;;;5.95;73.25;143723.14;1767364;80;21017;-53
2022/04/17 09:46:08;;;;;;;4.67;2.40;;;;;;;5.79;72.06;143685.63;1767606;80;21456;-53
2022/04/17 09:48:39;;;;;;;4.20;2.02;;;;;;;5.70;71.94;143663.16;1767447;80;21006;-56
2022/04/17 09:51:27;;;;;;;3.50;1.85;;;;;;;5.79;72.03;143685.63;1767585;80;21054;-56
2022/04/17 09:54:08;;;;;;;3.67;2.22;;;;;;;5.93;71.05;143718.09;1767424;80;21022;-54
2022/04/17 09:56:45;;;;;;;4.20;2.42;;;;;;;6.18;70.91;143779.38;1767468;80;21022;-56
2022/04/17 09:59:21;;;;;;;3.60;1.98;;;;;;;6.37;69.42;143826.89;1767362;81;20998;-55
2022/04/17 10:01:54;;;;;;;3.52;1.67;;;;;;;6.32;69.98;143813.16;1767107;80;21007;-56
2022/04/17 10:04:24;;;;;;;2.33;1.60;;;;;;;6.03;70.49;143743.13;1767572;80;20991;-55
2022/04/17 10:06:56;;;;;;;3.98;1.67;;;;;;;5.64;70.65;143648.14;1767701;80;21073;-53
2022/04/17 10:09:25;;;;;;;4.47;1.85;;;;;;;5.36;72.16;143580.69;1767367;81;21055;-53
2022/04/17 10:11:52;;;;;;;4.95;2.20;;;;;;;5.21;73.22;143543.23;1767324;80;21527;-53
2022/04/17 10:14:20;;;;;;;5.92;2.35;;;;;;;5.13;72.75;143523.27;1767586;81;21496;-54
2022/04/17 10:16:50;;;;;;;7.50;3.37;;;;;;;5.10;73.26;143515.78;1767151;80;21030;-54
2022/04/17 10:19:24;;;;;;;9.83;4.65;;;;;;;5.08;73.54;143512.02;1767435;80;21487;-57
2022/04/17 10:21:52;;;;;;;8.88;4.53;;;;;;;5.12;73.96;143520.78;1767057;81;21011;-54
2022/04/17 10:24:21;;;;;;;8.93;4.75;;;;;;;5.23;74.44;143548.23;1740340;82;21517;-54
2022/04/17 10:26:52;;;;;;;10.75;5.28;;;;;;;5.32;74.32;143570.73;1745711;82;20976;-55
2022/04/17 10:29:32;;;;;;;12.05;4.78;;;;;;;5.42;74.75;143595.70;1735269;82;20980;-55
2022/04/17 10:32:21;;;;;;;11.73;4.08;;;;;;;5.56;75.49;143628.17;1725032;82;20981;-57
2022/04/17 10:35:19;;;;;;;6.85;4.20;;;;;;;5.86;75.06;143703.13;1748124;82;21564;-55
2022/04/17 10:38:15;;;;;;;8.65;4.92;;;;;;;6.35;74.54;143821.88;1755095;82;21011;-55
2022/04/17 10:40:59;;;;;;;9.23;4.42;;;;;;;6.82;72.64;143936.91;1755276;80;21050;-56
2022/04/17 10:43:53;;;;;;;11.70;4.08;;;;;;;6.95;72.55;143968.17;1709986;83;21043;-56
2022/04/17 10:46:22;;;;;;;9.70;5.12;;;;;;;6.98;71.83;143974.42;1737865;82;21509;-55
2022/04/17 10:48:57;;;;;;;10.88;5.20;;;;;;;6.91;70.83;143958.16;1729694;82;21032;-54
2022/04/17 10:51:31;;;;;;;10.82;4.80;;;;;;;6.83;70.58;143938.16;1755621;82;21042;-57
2022/04/17 10:54:07;;;;;;;9.08;3.05;;;;;;;6.83;70.41;143938.16;1726548;83;20971;-56
2022/04/17 10:56:39;;;;;;;9.73;4.08;;;;;;;6.85;70.81;143943.16;1728420;82;21012;-56
2022/04/17 10:59:22;;;;;;;8.30;3.25;;;;;;;6.87;69.27;143949.41;1752539;81;21528;-55
2022/04/17 11:02:10;;;;;;;8.80;3.67;;;;;;;6.83;69.45;143938.16;1753264;82;21472;-53
2022/04/17 11:04:41;;;;;;;10.05;4.83;;;;;;;6.77;68.79;143924.41;1723280;82;21063;-55
2022/04/17 11:07:14;;;;;;;13.22;6.08;;;;;;;6.72;69.03;143913.16;1730782;82;21002;-57
2022/04/17 11:09:46;;;;;;;12.05;5.40;;;;;;;6.76;68.70;143920.64;1726090;83;21019;-57
2022/04/17 11:12:28;;;;;;;10.25;4.47;;;;;;;6.78;68.70;143925.66;1741689;81;20967;-56
2022/04/17 11:15:05;;;;;;;;;;;;;;;6.66;69.03;143896.88;1705839;82;21067;-57
2022/04/17 11:17:38;;;;;;;9.03;3.33;;;;;;;6.39;69.34;143830.66;1738913;82;20396;-56
2022/04/17 11:20:08;;;;;;;5.80;2.60;;;;;;;5.97;69.38;143728.16;1702238;83;21040;-55
2022/04/17 11:22:38;;;;;;;5.87;2.55;;;;;;;5.57;71.36;143630.66;1730283;82;21030;-56
2022/04/17 11:25:09;;;;;;;4.87;2.27;;;;;;;5.30;73.39;143565.72;1727138;82;21040;-54
2022/04/17 11:27:50;;;;;;;5.60;3.00;;;;;;;5.10;74.57;143517.02;1724142;82;21023;-56
2022/04/17 11:30:25;;;;;;;5.05;2.62;;;;;;;5.02;75.74;143495.81;1740758;82;21052;-54
2022/04/17 11:32:52;;;;;;;6.37;3.25;;;;;;;4.96;74.83;143482.05;1723916;83;21043;-57
2022/04/17 11:35:23;;;;;;;5.75;2.98;;;;;;;5.02;76.21;143495.81;1755448;82;21061;-55
2022/04/17 11:38:01;;;;;;;8.25;4.25;;;;;;;5.06;76.96;143505.78;1793218;79;20988;-54
2022/04/17 11:40:32;;;;;;;10.78;4.10;;;;;;;5.16;77.04;143530.75;1792412;78;21003;-56
2022/04/17 11:43:09;;;;;;;9.73;4.37;;;;;;;5.37;76.56;143583.22;1786724;80;21550;-58
2022/04/17 11:45:37;;;;;;;12.60;4.53;;;;;;;5.55;75.62;143625.69;1787147;79;21042;-55
2022/04/17 11:48:07;;;;;;;10.05;5.12;;;;;;;5.66;75.34;143653.16;1786877;80;21457;-57
2022/04/17 11:50:36;;;;;;;6.67;2.70;;;;;;;5.68;75.34;143658.16;1787070;80;21469;-56
2022/04/17 11:53:12;;;;;;;1.92;1.07;;;;;;;5.63;72.80;143645.66;1786763;80;21023;-60
2022/04/17 11:55:42;;;;;;;4.55;2.20;;;;;;;5.43;69.99;143598.19;1764258;80;21010;-53
2022/04/17 11:58:15;;;;;;;4.58;1.92;;;;;;;5.27;71.05;143558.25;1793693;80;21023;-54
2022/04/17 12:00:43;;;;;;;11.83;4.60;;;;;;;5.19;72.04;143539.52;1785663;80;21505;-55
2022/04/17 12:03:11;;;;;;;12.05;4.28;;;;;;;5.22;73.83;143547.00;1755563;80;21039;-54
2022/04/17 12:05:40;;;;;;;12.47;4.53;;;;;;;5.23;75.37;143549.47;1755625;80;21065;-54
2022/04/17 12:08:09;;;;;;;12.40;4.42;;;;;;;5.42;76.15;143595.70;1755805;80;21007;-54
2022/04/17 12:10:41;;;;;;;14.95;5.37;;;;;;;5.85;74.85;143699.34;1755814;82;21120;-54
2022/04/17 12:13:21;;;;;;;15.75;5.65;;;;;;;5.98;71.30;143730.63;1756162;80;21377;-54
2022/04/17 12:16:05;;;;;;;14.05;4.75;;;;;;;6.09;70.59;143758.16;1793406;79;21071;-54
2022/04/17 12:18:34;;;;;;;16.42;5.55;;;;;;;6.14;68.95;143769.41;1793735;79;21508;-54
2022/04/17 12:21:06;;;;;;;11.83;4.62;;;;;;;6.29;69.05;143806.89;1755817;80;21031;-54
2022/04/17 12:23:35;;;;;;;15.60;6.80;;;;;;;6.48;68.14;143853.13;1793683;79;20988;-54
2022/04/17 12:26:06;;;;;;;14.35;5.92;;;;;;;6.73;67.78;143915.63;1728233;82;21508;-54
2022/04/17 12:28:34;;;;;;;11.75;5.03;;;;;;;7.04;66.43;143990.66;1762682;81;21492;-54
2022/04/17 12:31:01;;;;;;;12.63;4.60;;;;;;;7.27;65.07;144045.69;1791247;80;21491;-54
2022/04/17 12:33:29;;;;;;;8.50;4.08;;;;;;;7.05;65.66;143993.19;1761523;80;21500;-54
2022/04/17 12:36:04;;;;;;;8.53;4.25;;;;;;;6.78;66.58;143925.66;1764388;80;21547;-54
2022/04/17 12:38:30;;;;;;;8.70;3.33;;;;;;;6.63;67.91;143890.63;1764757;80;21003;-54
2022/04/17 12:41:01;;;;;;;5.33;2.47;;;;;;;6.81;66.95;143933.14;1763910;80;21022;-55
2022/04/17 12:43:30;;;;;;;10.28;4.40;;;;;;;6.74;65.67;143918.16;1733844;83;21030;-54
2022/04/17 12:46:03;;;;;;;7.65;3.22;;;;;;;6.47;65.84;143850.64;1734239;81;21511;-54
2022/04/17 12:48:35;;;;;;;8.48;3.87;;;;;;;6.16;67.35;143775.66;1734160;81;21042;-55
2022/04/17 12:51:06;;;;;;;7.72;3.55;;;;;;;6.09;68.54;143758.16;1734439;81;21018;-54
2022/04/17 12:53:40;;;;;;;9.78;3.50;;;;;;;6.05;69.01;143749.38;1762757;80;20999;-54
2022/04/17 12:56:09;;;;;;;7.03;3.22;;;;;;;5.99;69.44;143733.16;1763566;80;21501;-53
2022/04/17 12:59:03;;;;;;;7.95;3.62;;;;;;;6.14;70.03;143769.41;1764569;80;21006;-54
2022/04/17 13:01:33;;;;;;;6.33;3.00;;;;;;;6.26;70.03;143800.66;1764211;81;21074;-54
2022/04/17 13:04:21;;;;;;;6.10;3.17;;;;;;;6.41;71.08;143835.63;1761880;80;20986;-57
2022/04/17 13:07:11;;;;;;;7.85;4.10;;;;;;;6.55;71.43;143869.39;1734703;81;21444;-54
2022/04/17 13:09:54;;;;;;;6.37;2.95;;;;;;;6.65;70.32;143895.63;1751998;81;21050;-54
2022/04/17 13:12:35;;;;;;;8.70;3.50;;;;;;;6.53;69.14;143865.63;1736852;82;21588;-54
2022/04/17 13:15:06;;;;;;;8.78;3.05;;;;;;;6.30;68.91;143809.38;1742444;82;21067;-54
2022/04/17 13:17:51;;;;;;;7.58;2.98;;;;;;;5.98;70.29;143730.63;1742062;82;20989;-54
2022/04/17 13:20:25;;;;;;;12.15;3.60;;;;;;;5.79;71.21;143685.63;1741013;82;21132;-55
2022/04/17 13:22:51;;;;;;;6.72;3.20;;;;;;;5.63;72.02;143646.91;1774396;80;21014;-54
2022/04/17 13:25:20;;;;;;;12.30;3.92;;;;;;;5.80;72.37;143686.86;1795059;80;21018;-54
2022/04/17 13:27:48;;;;;;;10.55;4.58;;;;;;;5.80;71.88;143688.16;1767527;80;21015;-54
2022/04/17 13:30:19;;;;;;;10.15;4.45;;;;;;;5.64;71.50;143649.38;1760088;80;21055;-54
2022/04/17 13:32:46;;;;;;;9.03;3.87;;;;;;;5.55;71.51;143626.94;1755726;80;21026;-54
2022/04/17 13:35:14;;;;;;;13.48;7.25;;;;;;;5.53;70.27;143621.92;1755788;80;21057;-54
2022/04/17 13:40:30;;;;;;;10.35;4.42;;;;;;;5.53;68.40;143621.92;1762230;80;21469;-54
2022/04/17 13:42:57;;;;;;;9.85;4.08;;;;;;;5.52;68.14;143618.16;1762196;80;21078;-54
2022/04/17 13:45:25;;;;;;;7.10;2.72;;;;;;;5.46;68.86;143603.19;1762255;80;21493;-54
2022/04/17 13:47:52;;;;;;;8.10;3.60;;;;;;;5.40;69.73;143590.70;1762174;80;21035;-54
2022/04/17 13:50:19;;;;;;;7.72;3.72;;;;;;;5.28;70.38;143560.72;1762180;80;20995;-53
2022/04/17 13:52:46;;;;;;;9.95;4.00;;;;;;;5.17;70.89;143533.27;1762235;80;21512;-54
2022/04/17 13:55:17;;;;;;;13.32;5.47;;;;;;;5.05;71.58;143503.30;1762413;80;21227;-55
2022/04/17 13:57:46;;;;;;;14.93;6.22;;;;;;;4.94;72.38;143477.09;1762074;80;21067;-54
2022/04/17 14:00:14;;;;;;;9.43;4.90;;;;;;;4.85;73.13;143454.61;1762128;81;21055;-56
2022/04/17 14:02:43;;;;;;;9.63;3.60;;;;;;;4.82;73.61;143448.36;1762718;80;21026;-54
2022/04/17 14:05:11;;;;;;;6.05;3.10;;;;;;;4.82;74.05;143448.36;1762290;80;20987;-54
2022/04/17 14:07:40;;;;;;;8.28;3.02;;;;;;;4.81;73.85;143444.59;1762349;80;21062;-54
2022/04/17 14:10:09;;;;;;;8.50;3.30;;;;;;;4.74;73.03;143429.64;1762323;80;20996;-54
2022/04/17 14:12:39;;;;;;;5.60;3.05;;;;;;;4.72;72.52;143423.41;1762290;81;21023;-54
2022/04/17 14:15:10;;;;;;;5.45;2.85;;;;;;;4.76;72.52;143433.41;1768423;80;21066;-54
2022/04/17 14:17:38;;;;;;;4.47;2.37;;;;;;;4.81;72.25;143444.59;1758325;80;21038;-54
2022/04/17 14:20:07;;;;;;;3.40;1.80;;;;;;;4.82;72.06;143447.13;1753695;82;21106;-54
2022/04/17 14:22:35;;;;;;;3.87;2.12;;;;;;;4.84;72.39;143452.13;1755939;81;21594;-54
2022/04/17 14:25:03;;;;;;;3.98;2.20;;;;;;;4.77;72.86;143437.13;1755863;80;21034;-54
2022/04/17 14:27:29;;;;;;;4.62;2.15;;;;;;;4.72;73.46;143423.41;1755938;80;21532;-54
2022/04/17 14:29:56;;;;;;;4.28;2.15;;;;;;;4.66;73.97;143408.44;1750122;80;21061;-55
2022/04/17 14:32:23;;;;;;;7.00;2.60;;;;;;;4.64;74.48;143403.44;1726240;83;21003;-54
2022/04/17 14:34:51;;;;;;;5.37;2.70;;;;;;;4.62;74.33;143398.44;1726382;81;21046;-54
2022/04/17 14:37:17;;;;;;;7.37;3.00;;;;;;;4.63;74.45;143400.91;1725965;82;21038;-55
2022/04/17 14:39:45;;;;;;;7.45;3.67;;;;;;;4.65;74.41;143407.16;1727012;82;21145;-54
2022/04/17 14:42:13;;;;;;;7.65;3.67;;;;;;;4.64;74.04;143403.44;1762317;81;21066;-54
2022/04/17 14:44:40;;;;;;;8.63;3.85;;;;;;;4.64;74.02;143403.44;1762360;80;20999;-54
2022/04/17 14:47:07;;;;;;;5.85;2.52;;;;;;;4.57;74.49;143388.44;1762254;81;21035;-54
2022/04/17 14:49:36;;;;;;;4.35;1.90;;;;;;;4.51;75.35;143373.48;1762608;80;21095;-54
2022/04/17 14:52:06;;;;;;;3.80;1.80;;;;;;;4.48;76.40;143366.00;1791296;79;21012;-54
2022/04/17 14:54:36;;;;;;;3.72;1.80;;;;;;;4.48;77.09;143364.77;1793708;78;21029;-56
2022/04/17 14:57:04;;;;;;;2.58;1.50;;;;;;;4.52;77.50;143375.95;1793568;79;21545;-54
2022/04/17 14:59:31;;;;;;;4.08;1.72;;;;;;;4.50;77.43;143371.00;1756074;80;21031;-54
2022/04/17 15:02:02;;;;;;;2.98;1.72;;;;;;;4.40;77.84;143346.05;1755829;80;21543;-55
2022/04/17 15:04:29;;;;;;;3.05;1.60;;;;;;;4.30;78.09;143321.05;1755847;80;21535;-54
2022/04/17 15:06:56;;;;;;;3.15;1.72;;;;;;;4.21;78.51;143298.63;1755542;82;21022;-54
2022/04/17 15:09:22;;;;;;;3.40;1.90;;;;;;;4.12;78.97;143278.67;1756067;80;21035;-54
2022/04/17 15:11:51;;;;;;;3.55;1.80;;;;;;;4.07;79.95;143266.19;1793567;79;21035;-54
2022/04/17 15:14:17;;;;;;;3.37;1.87;;;;;;;4.08;80.25;143268.67;1755891;80;21035;-54
2022/04/17 15:16:46;;;;;;;8.53;3.87;;;;;;;4.08;80.71;143267.44;1755747;80;21027;-54
2022/04/17 15:19:12;;;;;;;7.70;3.77;;;;;;;4.05;80.76;143261.19;1749509;80;21121;-54
2022/04/17 15:21:40;;;;;;;3.40;1.90;;;;;;;4.08;80.76;143268.67;1731979;80;21054;-54
2022/04/17 15:24:08;;;;;;;4.42;2.42;;;;;;;4.12;80.92;143278.67;1814867;78;21020;-54
2022/04/17 15:26:35;;;;;;;3.62;1.90;;;;;;;4.13;81.37;143279.91;1793742;79;21074;-54
2022/04/17 15:29:01;;;;;;;3.95;1.82;;;;;;;4.08;81.74;143268.67;1793566;80;21481;-54
2022/04/17 15:31:30;;;;;;;4.83;2.27;;;;;;;4.03;81.27;143256.20;1799666;78;21072;-54
2022/04/17 15:33:57;;;;;;;3.87;1.85;;;;;;;3.98;82.17;143243.72;1802179;80;21058;-54
2022/04/17 15:36:24;;;;;;;3.58;1.95;;;;;;;3.98;82.68;143243.72;1799704;80;21026;-54
2022/04/17 15:38:51;;;;;;;3.62;1.70;;;;;;;4.03;82.77;143254.95;1795705;80;21030;-54
2022/04/17 15:41:18;;;;;;;4.67;1.50;;;;;;;4.10;82.01;143273.67;1795899;78;21031;-54
2022/04/17 15:49:17;;;;;;;3.27;1.65;;;;;;;4.13;80.01;143281.14;1795831;80;21464;-54
2022/04/17 15:51:44;;;;;;;2.90;1.50;;;;;;;4.04;79.16;143257.44;1795998;80;20971;-56
2022/04/17 15:54:10;;;;;;;2.90;1.50;;;;;;;3.96;78.61;143237.48;1795972;80;21050;-56
2022/04/17 15:56:37;;;;;;;3.05;1.60;;;;;;;3.89;78.79;143222.53;1795818;80;21505;-56
2022/04/17 15:59:04;;;;;;;3.12;1.60;;;;;;;3.82;78.81;143203.84;1795728;80;21488;-55
2022/04/17 16:01:31;;;;;;;1.77;1.30;;;;;;;3.74;78.68;143183.84;1795673;78;21070;-55
2022/04/17 16:03:59;;;;;;;1.75;1.30;;;;;;;3.64;77.14;143161.42;1795660;80;21022;-56
2022/04/17 16:06:25;;;;;;;3.40;1.80;;;;;;;3.56;77.26;143140.20;1795741;78;21023;-55
2022/04/17 16:08:53;;;;;;;4.08;1.82;;;;;;;3.49;78.07;143124.02;1796063;80;21023;-56
2022/04/17 16:11:20;;;;;;;3.02;1.50;;;;;;;3.46;78.72;143117.78;1800541;78;21016;-56
2022/04/17 16:13:48;;;;;;;2.75;1.57;;;;;;;3.44;78.43;143112.78;1800418;80;21031;-55
2022/04/17 16:16:16;;;;;;;3.70;2.02;;;;;;;3.41;78.19;143104.03;1800439;78;21039;-55
2022/04/17 16:18:43;;;;;;;3.40;1.52;;;;;;;3.37;78.52;143095.33;1800422;79;21032;-54
2022/04/17 16:21:11;;;;;;;3.95;1.80;;;;;;;3.30;78.80;143077.86;1801292;79;21031;-55
2022/04/17 16:23:38;;;;;;;3.90;1.87;;;;;;;3.26;79.34;143069.16;1796360;79;21003;-55
2022/04/17 16:26:08;;;;;;;2.60;1.60;;;;;;;3.21;79.82;143055.45;1797372;80;21505;-55
2022/04/17 16:28:36;;;;;;;3.47;2.10;;;;;;;3.17;80.42;143046.70;1764303;80;21536;-55
2022/04/17 16:31:06;;;;;;;2.83;1.42;;;;;;;3.14;80.92;143038.00;1763011;80;21050;-55
2022/04/17 16:33:34;;;;;;;3.20;1.80;;;;;;;3.14;81.60;143039.23;1761385;81;21066;-59
2022/04/17 16:36:03;;;;;;;3.27;1.57;;;;;;;3.11;82.26;143031.77;1761271;80;20987;-60
2022/04/17 16:38:29;;;;;;;2.62;1.50;;;;;;;3.09;82.76;143025.53;1772807;80;21566;-55
2022/04/17 16:40:56;;;;;;;2.80;1.70;;;;;;;3.12;83.83;143033.00;1792520;80;21039;-55
2022/04/17 16:43:24;;;;;;;2.42;1.47;;;;;;;3.09;84.33;143025.53;1792485;80;21508;-60
2022/04/17 16:45:51;;;;;;;3.98;1.75;;;;;;;3.06;84.61;143019.30;1780711;80;20998;-54
2022/04/17 16:48:19;;;;;;;5.25;2.72;;;;;;;3.03;85.19;143011.83;1733942;82;21019;-57
2022/04/17 16:50:46;;;;;;;3.27;1.70;;;;;;;2.98;85.72;142999.38;1739007;82;21039;-56
2022/04/17 16:53:14;;;;;;;2.90;1.55;;;;;;;2.93;86.00;142988.16;1737954;82;21039;-55
2022/04/17 16:55:41;;;;;;;3.60;1.80;;;;;;;2.88;86.46;142975.69;1741917;82;21071;-55
2022/04/17 17:00:53;;;;;;;4.40;1.67;;;;;;;2.73;87.26;142939.55;1715281;84;21052;-55
2022/04/17 17:03:19;;;;;;;3.77;1.70;;;;;;;2.67;87.70;142923.33;1723180;83;21023;-55
2022/04/17 17:05:46;;;;;;;4.62;1.90;;;;;;;2.65;88.28;142918.38;1745121;82;20990;-54
2022/04/17 17:08:13;;;;;;;5.83;2.22;;;;;;;2.61;88.75;142910.88;1746637;81;21023;-55
2022/04/17 17:10:40;;;;;;;5.83;2.50;;;;;;;2.56;88.98;142897.17;1746632;82;21031;-55
2022/04/17 17:13:07;;;;;;;5.30;2.83;;;;;;;2.52;89.28;142887.19;1744035;81;21019;-55
2022/04/17 17:15:35;;;;;;;5.47;1.80;;;;;;;2.48;89.57;142877.25;1746389;82;21023;-54
2022/04/17 17:18:02;;;;;;;3.90;1.82;;;;;;;2.48;89.83;142877.25;1737560;82;21042;-54
2022/04/17 17:20:31;;;;;;;3.67;1.82;;;;;;;2.53;89.97;142889.72;1746872;82;21040;-56
2022/04/17 17:22:58;;;;;;;3.20;2.00;;;;;;;2.60;90.01;142907.16;1746085;82;21070;-55
2022/04/17 17:25:27;;;;;;;5.10;1.95;;;;;;;2.66;89.86;142920.86;1744706;81;21130;-55
2022/04/17 17:27:53;;;;;;;4.83;2.05;;;;;;;2.68;89.46;142927.08;1745409;82;21006;-55
2022/04/17 17:30:20;;;;;;;4.83;2.17;;;;;;;2.70;89.30;142932.08;1747597;81;21038;-56
2022/04/17 17:32:48;;;;;;;4.90;2.77;;;;;;;2.67;89.14;142924.61;1756410;82;21047;-54
2022/04/17 17:35:15;;;;;;;4.35;2.22;;;;;;;2.63;89.25;142914.63;1749534;82;21036;-55
2022/04/17 17:37:43;;;;;;;5.30;2.87;;;;;;;2.60;89.36;142907.16;1750821;82;21520;-55
2022/04/17 17:40:10;;;;;;;5.67;2.75;;;;;;;2.59;89.52;142904.64;1756662;82;21390;-59
2022/04/17 17:42:37;;;;;;;4.90;2.60;;;;;;;2.61;89.39;142909.63;1756781;82;21507;-54
2022/04/17 17:45:06;;;;;;;5.05;2.30;;;;;;;2.59;89.36;142904.64;1750747;82;21044;-55
2022/04/17 17:47:34;;;;;;;5.12;2.52;;;;;;;2.56;89.27;142898.41;1750966;82;21726;-56
2022/04/17 17:50:01;;;;;;;5.30;2.45;;;;;;;2.52;89.40;142887.19;1751617;82;21043;-56
2022/04/17 17:52:32;;;;;;;5.55;3.00;;;;;;;2.48;89.36;142877.25;1745373;80;21047;-56
2022/04/17 17:54:59;;;;;;;7.60;3.30;;;;;;;2.48;89.53;142877.25;1753273;82;21525;-57
2022/04/17 17:57:26;;;;;;;7.67;3.75;;;;;;;2.54;89.66;142892.19;1754978;82;21087;-56
2022/04/17 17:59:55;;;;;;;8.65;4.15;;;;;;;2.64;89.53;142917.09;1755100;81;21474;-56
2022/04/17 18:02:23;;;;;;;9.00;4.35;;;;;;;2.73;89.40;142938.31;1754849;82;21516;-54
2022/04/17 18:04:50;;;;;;;14.95;5.92;;;;;;;2.80;89.12;142957.00;1772724;80;21023;-55
2022/04/17 18:14:30;;;;;;;20.30;7.22;;;;;;;2.85;89.02;142966.94;1755531;80;21536;-56
2022/04/17 18:15:22;;;;;;;37.30;12.58;;;;;;;2.79;88.93;142954.47;1756449;81;21012;-58
2022/04/17 18:17:54;;;;;;;29.82;9.75;;;;;;;2.73;89.06;142938.31;1726469;82;21021;-56
2022/04/17 18:20:21;;;;;;;23.05;8.83;;;;;;;2.65;89.19;142919.63;1752172;82;21010;-57
2022/04/17 18:22:49;;;;;;;19.82;7.55;;;;;;;2.65;89.25;142918.38;1726451;83;21011;-55
2022/04/17 18:25:17;;;;;;;19.80;7.12;;;;;;;2.65;89.09;142918.38;1728396;83;21111;-56
2022/04/17 18:27:46;;;;;;;16.80;6.12;;;;;;;2.67;88.81;142923.33;1756521;82;21042;-58
2022/04/17 18:30:12;;;;;;;15.70;6.62;;;;;;;2.66;87.99;142922.09;1753538;82;21158;-60
2022/04/17 18:32:40;;;;;;;13.25;5.65;;;;;;;2.62;87.63;142912.16;1755657;80;21027;-57
2022/04/17 18:35:10;;;;;;;11.33;4.33;;;;;;;2.61;87.29;142910.88;1789608;79;20984;-56
2022/04/17 18:37:41;;;;;;;9.23;4.33;;;;;;;2.59;87.05;142904.64;1791653;80;21000;-55
2022/04/17 18:40:11;;;;;;;9.45;3.72;;;;;;;2.54;87.67;142892.19;1790889;80;21011;-56
2022/04/17 18:42:39;;;;;;;9.88;4.20;;;;;;;2.46;89.50;142872.25;1790228;79;21480;-55
2022/04/17 18:45:07;;;;;;;15.38;5.47;;;;;;;2.32;90.85;142839.88;1789797;79;21046;-53
2022/04/17 18:47:35;;;;;;;11.05;4.97;;;;;;;2.23;91.85;142817.45;1790624;78;20932;-54
2022/04/17 18:50:02;;;;;;;11.28;4.25;;;;;;;2.14;92.59;142795.06;1752712;82;21039;-51
2022/04/17 18:52:29;;;;;;;10.93;4.05;;;;;;;2.10;93.26;142785.08;1754737;80;21034;-50
2022/04/17 18:54:58;;;;;;;10.45;4.55;;;;;;;2.07;93.47;142777.63;1789728;79;21039;-52
2022/04/17 18:57:26;;;;;;;10.82;4.03;;;;;;;2.05;93.71;142772.62;1756645;80;21148;-51
2022/04/17 18:59:53;;;;;;;14.58;5.33;;;;;;;2.03;93.60;142767.64;1754670;80;21050;-51
2022/04/17 19:02:22;;;;;;;14.45;5.50;;;;;;;1.99;93.43;142757.70;1754952;81;20991;-53
2022/04/17 19:04:49;;;;;;;11.65;4.70;;;;;;;1.93;93.41;142743.97;1754519;82;21493;-50
2022/04/17 19:07:16;;;;;;;10.88;4.78;;;;;;;1.94;93.63;142747.72;1790091;80;21037;-52
2022/04/17 19:09:43;;;;;;;15.85;4.53;;;;;;;1.97;93.39;142753.95;1788504;80;21121;-52
2022/04/17 19:14:56;;;;;;;12.18;4.42;;;;;;;1.97;92.36;142753.95;1790270;80;21505;-52
2022/04/17 19:17:24;;;;;;;9.80;4.80;;;;;;;1.94;91.81;142747.72;1789080;80;21043;-52
2022/04/17 19:19:52;;;;;;;10.78;4.35;;;;;;;1.90;91.60;142737.75;1787918;79;21019;-50
2022/04/17 19:22:20;;;;;;;11.15;4.85;;;;;;;1.83;91.32;142720.36;1788666;80;21512;-50
2022/04/17 19:24:48;;;;;;;10.58;4.58;;;;;;;1.78;91.25;142706.63;1789766;79;21521;-50
2022/04/17 19:27:15;;;;;;;10.03;4.42;;;;;;;1.72;91.42;142692.94;1790158;80;21097;-51
2022/04/17 19:29:43;;;;;;;7.83;3.50;;;;;;;1.68;91.54;142682.97;1754938;82;21051;-51
2022/04/17 19:37:47;;;;;;;6.05;2.90;;;;;;;1.60;92.04;142663.06;1790447;80;21127;-53
2022/04/17 19:40:19;;;;;;;6.17;2.80;;;;;;;1.55;92.13;142650.61;1792188;79;21533;-53
2022/04/17 19:42:47;;;;;;;5.05;2.50;;;;;;;1.50;92.24;142640.69;1792746;80;21081;-55
2022/04/17 19:45:17;;;;;;;7.35;2.90;;;;;;;1.46;92.44;142630.70;1793192;80;20995;-57
2022/04/17 19:47:49;;;;;;;5.40;2.72;;;;;;;1.44;92.58;142625.72;1793695;79;21062;-50
2022/04/17 19:50:18;;;;;;;9.13;3.45;;;;;;;1.39;92.69;142612.03;1792876;79;21019;-54
2022/04/17 19:52:46;;;;;;;8.60;3.80;;;;;;;1.34;92.85;142600.83;1793429;79;21071;-52
2022/04/17 19:55:13;;;;;;;9.43;3.62;;;;;;;1.32;92.94;142595.84;1786864;79;21057;-53
2022/04/17 19:57:40;;;;;;;9.08;4.12;;;;;;;1.32;92.96;142595.84;1786364;79;20984;-53
2022/04/17 20:00:09;;;;;;;10.05;4.95;;;;;;;1.30;92.97;142590.91;1787081;79;21050;-54
2022/04/17 20:02:39;;;;;;;8.45;3.70;;;;;;;1.26;93.12;142582.16;1786935;79;21489;-55
2022/04/17 20:05:07;;;;;;;11.08;3.50;;;;;;;1.26;93.31;142582.16;1786762;80;21026;-53
2022/04/17 20:07:34;;;;;;;8.43;3.55;;;;;;;1.26;93.42;142580.92;1787018;80;20959;-52
2022/04/17 20:10:01;;;;;;;6.83;3.50;;;;;;;1.28;93.47;142585.91;1786804;80;21097;-53
2022/04/17 20:12:29;;;;;;;10.38;4.28;;;;;;;1.29;93.43;142589.62;1786829;80;20983;-53
2022/04/17 20:14:57;;;;;;;11.00;4.28;;;;;;;1.31;93.30;142593.38;1786742;80;21022;-53
2022/04/17 20:17:24;;;;;;;10.63;3.80;;;;;;;1.28;93.18;142585.91;1786760;79;21011;-54
2022/04/17 20:19:52;;;;;;;16.12;4.50;;;;;;;1.25;93.18;142578.47;1786830;79;21497;-53
2022/04/17 20:22:19;;;;;;;13.32;4.33;;;;;;;1.25;93.17;142579.69;1787034;80;21023;-52
2022/04/17 20:24:46;;;;;;;13.10;5.33;;;;;;;1.26;93.21;142580.92;1765239;80;21058;-53
2022/04/17 20:27:13;;;;;;;12.85;5.35;;;;;;;1.26;93.22;142582.16;1755776;80;21019;-53
2022/04/17 20:29:40;;;;;;;15.43;7.08;;;;;;;1.29;93.33;142588.39;1793394;79;21020;-53
2022/04/17 20:32:08;;;;;;;15.15;6.60;;;;;;;1.33;93.23;142598.36;1793373;78;21071;-52
2022/04/17 20:34:34;;;;;;;13.80;6.17;;;;;;;1.34;93.01;142600.83;1755983;80;21002;-54
2022/04/17 20:37:04;;;;;;;17.98;7.28;;;;;;;1.35;92.92;142602.06;1793493;79;21021;-54
2022/04/17 20:39:33;;;;;;;25.70;7.47;;;;;;;1.30;92.56;142590.91;1755816;80;21548;-53
2022/04/17 20:41:59;;;;;;;22.93;8.88;;;;;;;1.26;92.49;142580.92;1793579;79;21493;-55
2022/04/17 20:52:43;;;;;;;17.85;9.23;;;;;;;1.06;92.55;142533.63;1755860;80;21500;-54
2022/04/17 20:55:10;;;;;;;20.43;9.70;;;;;;;1.03;92.86;142526.17;1755815;80;20987;-55
2022/04/17 20:57:39;;;;;;;28.32;9.95;;;;;;;1.00;92.84;142518.72;1756049;80;20999;-53
2022/04/17 21:00:08;;;;;;;28.35;10.65;;;;;;;0.97;92.91;142510.03;1793398;80;21489;-54
2022/04/17 21:02:34;;;;;;;30.80;10.75;;;;;;;0.89;93.14;142491.38;1793643;80;20972;-53
2022/04/17 21:05:03;;;;;;;24.02;10.78;;;;;;;0.85;93.37;142481.41;1793367;80;21062;-55
2022/04/17 21:07:31;;;;;;;26.45;10.75;;;;;;;0.80;93.38;142468.97;1793663;79;21531;-53
2022/04/17 21:09:59;;;;;;;27.25;10.43;;;;;;;0.78;93.57;142463.97;1793393;79;21024;-53
2022/04/17 21:12:29;;;;;;;23.12;9.58;;;;;;;0.79;93.62;142466.45;1793632;80;21027;-54
2022/04/17 21:14:57;;;;;;;24.63;9.43;;;;;;;0.78;93.71;142465.22;1755717;80;21107;-55
2022/04/17 21:17:25;;;;;;;17.50;9.33;;;;;;;0.73;93.80;142451.53;1755683;80;21014;-53
2022/04/17 21:19:52;;;;;;;17.90;7.03;;;;;;;0.71;93.79;142447.80;1755744;80;21038;-53
2022/04/17 21:22:19;;;;;;;20.80;9.45;;;;;;;0.69;93.92;142442.86;1793525;79;21485;-55
2022/04/17 21:24:46;;;;;;;20.85;7.80;;;;;;;0.69;93.83;142441.58;1755966;80;21067;-54
2022/04/17 21:27:14;;;;;;;23.47;8.53;;;;;;;0.67;93.90;142436.64;1755722;80;21023;-53
2022/04/17 21:29:49;;;;;;;18.48;7.50;;;;;;;0.66;94.00;142435.36;1793338;79;21023;-54
2022/04/17 21:32:14;;;;;;;22.93;7.33;;;;;;;0.69;93.99;142441.58;1794439;78;21043;-54
2022/04/17 21:34:42;;;;;;;15.25;7.17;;;;;;;0.74;94.01;142455.30;1760948;80;21038;-53
2022/04/17 21:37:09;;;;;;;20.40;7.05;;;;;;;0.75;93.74;142456.53;1761425;80;21489;-54
2022/04/17 21:39:38;;;;;;;13.30;6.25;;;;;;;0.69;93.55;142441.58;1761445;80;21038;-55
2022/04/17 21:42:06;;;;;;;16.15;7.00;;;;;;;0.62;93.73;142426.67;1761210;80;21078;-53
2022/04/17 21:44:34;;;;;;;17.07;7.85;;;;;;;0.60;93.82;142421.69;1761772;80;21500;-54
2022/04/17 21:47:00;;;;;;;14.78;6.22;;;;;;;0.59;93.81;142417.98;1761370;80;21037;-53